메인 페이지
METAR-TAF:

METAR-TAF

공항 :

OR 탐보 국제공항

요하네스버그, 남아프리카공화국

위도: 26-08S, 경도: 028-14E, 고도: 1694m

현재 날씨관측

예보는 13분 전, 19:00시(UTC)에 발표되었습니다.
여러 방향의 바람 1kt
온도 13°C
습도 94%
기압 1023 hPa
시정 10km 이상
1500m 미만 상공 구름 및 적란운 없음

METAR: FAOR 041900Z VRB01KT CAVOK 13/12 Q1023 NOSIG

시각: 21:13 (19:13 UTC)

예보

예보는 3 시간 13분 전, 16:00시(UTC)에 발표되었습니다.
예보 대상 시간: 04일 18시부터 05일 24시까지 (UTC)
남서6kt
시정 10km 이상
고도 3500ft 상공 구름 보통
전환 중
04일 22시부터 04일 24시까지 (UTC)
고도 1500ft 상공 구름 많음
확률 40% :
일시적
05일 00시부터 05일 08시까지 (UTC)
시정: 3000m
고도 600ft 상공 구름 많음
박무
확률 30% :
일시적
05일 01시부터 05일 07시까지 (UTC)
시정: 0200m
고도 100ft 상공
안개
전환 중
05일 08시부터 05일 10시까지 (UTC)
고도 3500ft 상공 구름 보통
전환 중
05일 11시부터 05일 13시까지 (UTC)
시정 10km 이상
1500m 미만 상공 구름 및 적란운 없음

TAF: FAOR 041600Z 0418/0524 22006KT 9999 SCT035 TX21/0513Z TN09/0504Z BECMG 0422/0424 BKN015 PROB40 TEMPO 0500/0508 3000 BR BKN006 PROB30 TEMPO 0501/0507 0200 FG VV001 BECMG 0508/0510 SCT035 BECMG 0511/0513 CAVOK

4,000개 이상의 공항 관측 자료 및 예보 (METAR 및 TAF 보고).

지도상에서 검색 가능한 기상관측소가 노란 점과 빨간 점으로 표시되어 있습니다.

기상관측소 명을 보려면 표시 위로 마우스를 이동하세요.

날씨 관측과 예보를 보려면 클릭하세요.

지도 변경 : 확대하려면 엑스 표시가 있는 녹색 버튼, 축소하려면 빼기 표시가 있는 녹색 버튼, 다음 페이지의 지도를 보려면 녹색 화살표를 클릭하세요.


METAR-TAF: